createdAt,value
2018-05-31T00:02:09.468Z,98390
2018-05-31T00:04:37.047Z,98391
2018-05-31T00:07:05.416Z,98398
2018-05-31T00:09:33.770Z,98396
2018-05-31T00:12:01.347Z,98393
2018-05-31T00:14:29.027Z,98398
2018-05-31T00:16:57.409Z,98388
2018-05-31T00:19:26.920Z,98385
2018-05-31T00:21:56.528Z,98376
2018-05-31T00:24:24.879Z,98379
2018-05-31T00:26:52.572Z,98379
2018-05-31T00:29:20.928Z,98378
2018-05-31T00:31:48.513Z,98371
2018-05-31T00:34:16.888Z,98363
2018-05-31T00:36:45.268Z,98362
2018-05-31T00:39:13.649Z,98360
2018-05-31T00:41:42.028Z,98362
2018-05-31T00:44:10.404Z,98362
2018-05-31T00:46:38.792Z,98361
2018-05-31T00:49:07.143Z,98361
2018-05-31T00:51:34.733Z,98360
2018-05-31T00:54:03.081Z,98362
2018-05-31T00:56:30.660Z,98357
2018-05-31T00:58:59.008Z,98359
2018-05-31T01:01:26.715Z,98359
2018-05-31T01:03:55.699Z,98364
2018-05-31T01:06:24.662Z,98370
2018-05-31T01:08:52.279Z,98372
2018-05-31T01:11:19.943Z,98368
2018-05-31T01:13:47.589Z,98367
2018-05-31T01:16:15.941Z,98356
2018-05-31T01:18:43.530Z,98357
2018-05-31T01:21:11.876Z,98362
2018-05-31T01:23:39.460Z,98364
2018-05-31T01:28:57.944Z,98347
2018-05-31T01:31:26.315Z,98348
2018-05-31T01:33:55.679Z,98357
2018-05-31T01:36:23.291Z,98346
2018-05-31T01:38:50.880Z,98350
2018-05-31T01:41:18.521Z,98345
2018-05-31T01:46:38.368Z,98345
2018-05-31T01:49:05.978Z,98341
2018-05-31T01:51:33.641Z,98333
2018-05-31T01:54:02.021Z,98331
2018-05-31T01:56:30.370Z,98325
2018-05-31T01:58:57.948Z,98331
2018-05-31T02:01:26.300Z,98330
2018-05-31T02:03:54.430Z,98342
2018-05-31T02:06:22.071Z,98344
2018-05-31T02:08:50.432Z,98337
2018-05-31T02:11:18.032Z,98333
2018-05-31T02:13:45.618Z,98330
2018-05-31T02:16:13.207Z,98330
2018-05-31T02:18:40.796Z,98337
2018-05-31T02:21:09.141Z,98327
2018-05-31T02:23:36.731Z,98319
2018-05-31T02:26:05.097Z,98319
2018-05-31T02:28:32.677Z,98313
2018-05-31T02:31:01.065Z,98316
2018-05-31T02:33:29.436Z,98314
2018-05-31T02:35:57.978Z,98314
2018-05-31T02:38:26.400Z,98317
2018-05-31T02:40:55.771Z,98311
2018-05-31T02:43:23.373Z,98301
2018-05-31T02:45:51.732Z,98304
2018-05-31T02:48:19.316Z,98309
2018-05-31T02:50:46.974Z,98300
2018-05-31T02:53:15.336Z,98309
2018-05-31T02:55:43.741Z,98300
2018-05-31T02:58:12.096Z,98299
2018-05-31T03:00:39.688Z,98292
2018-05-31T03:03:07.339Z,98280
2018-05-31T03:05:35.694Z,98296
2018-05-31T03:08:03.390Z,98300
2018-05-31T03:10:31.052Z,98300
2018-05-31T03:12:59.432Z,98307
2018-05-31T03:15:27.089Z,98301
2018-05-31T03:17:56.184Z,98310
2018-05-31T03:20:25.548Z,98311
2018-05-31T03:22:53.153Z,98302
2018-05-31T03:25:21.504Z,98301
2018-05-31T03:27:49.091Z,98313
2018-05-31T03:30:17.433Z,98316
2018-05-31T03:32:45.029Z,98313
2018-05-31T03:35:13.409Z,98310
2018-05-31T03:37:41.793Z,98304
2018-05-31T03:40:10.156Z,98300
2018-05-31T03:42:37.828Z,98299
2018-05-31T03:45:06.232Z,98295
2018-05-31T03:47:34.591Z,98304
2018-05-31T03:50:02.975Z,98308
2018-05-31T03:52:31.357Z,98319
2018-05-31T03:54:59.743Z,98316
2018-05-31T03:57:27.380Z,98318
2018-05-31T03:59:56.359Z,98311
2018-05-31T04:02:24.776Z,98322
2018-05-31T04:04:52.437Z,98324
2018-05-31T04:07:20.792Z,98322
2018-05-31T04:09:48.481Z,98314
2018-05-31T04:12:16.153Z,98315
2018-05-31T04:14:43.804Z,98316
2018-05-31T04:17:12.183Z,98321
2018-05-31T04:19:40.533Z,98325
2018-05-31T04:22:08.132Z,98323
2018-05-31T04:24:35.784Z,98325
2018-05-31T04:27:04.173Z,98318
2018-05-31T04:29:32.511Z,98324
2018-05-31T04:32:00.092Z,98327
2018-05-31T04:34:27.777Z,98331
2018-05-31T04:36:56.256Z,98334
2018-05-31T04:39:25.440Z,98348
2018-05-31T04:41:53.117Z,98343
2018-05-31T04:44:21.497Z,98348
2018-05-31T04:46:49.866Z,98351
2018-05-31T04:49:17.442Z,98350
2018-05-31T04:51:45.800Z,98356
2018-05-31T04:54:14.153Z,98358
2018-05-31T04:56:41.755Z,98358
2018-05-31T04:59:10.137Z,98366
2018-05-31T05:01:38.496Z,98360
2018-05-31T05:04:06.899Z,98364
2018-05-31T05:06:35.277Z,98369
2018-05-31T05:09:03.633Z,98366
2018-05-31T05:11:31.212Z,98371
2018-05-31T05:13:59.565Z,98380
2018-05-31T05:16:27.255Z,98377
2018-05-31T05:18:56.972Z,98388
2018-05-31T05:21:26.524Z,98384
2018-05-31T05:23:55.154Z,98389
2018-05-31T05:26:22.858Z,98391
2018-05-31T05:28:51.217Z,98397
2018-05-31T05:31:19.628Z,98393
2018-05-31T05:33:47.220Z,98397
2018-05-31T05:36:14.916Z,98402
2018-05-31T05:38:43.281Z,98413
2018-05-31T05:41:11.637Z,98415
2018-05-31T05:43:39.340Z,98410
2018-05-31T05:46:07.724Z,98411
2018-05-31T05:48:35.382Z,98404
2018-05-31T05:51:03.767Z,98405
2018-05-31T05:53:32.144Z,98408
2018-05-31T05:56:00.505Z,98406
2018-05-31T05:58:28.089Z,98409
2018-05-31T06:00:56.471Z,98411
2018-05-31T06:03:25.239Z,98414
2018-05-31T06:05:52.816Z,98422
2018-05-31T06:08:22.008Z,98413
2018-05-31T06:10:50.351Z,98415
2018-05-31T06:13:17.944Z,98409
2018-05-31T06:15:46.331Z,98423
2018-05-31T06:18:14.723Z,98412
2018-05-31T06:20:43.070Z,98413
2018-05-31T06:23:10.657Z,98419
2018-05-31T06:25:39.009Z,98419
2018-05-31T06:28:06.600Z,98411
2018-05-31T06:30:34.248Z,98424
2018-05-31T06:33:01.926Z,98422
2018-05-31T06:35:30.299Z,98414
2018-05-31T06:37:57.869Z,98421
2018-05-31T06:40:26.211Z,98424
2018-05-31T06:42:54.492Z,98418
2018-05-31T06:45:22.085Z,98421
2018-05-31T06:47:50.420Z,98420
2018-05-31T06:50:17.993Z,98418
2018-05-31T06:52:46.595Z,98413
2018-05-31T06:55:14.187Z,98412
2018-05-31T06:57:42.548Z,98416
2018-05-31T07:00:10.929Z,98415
2018-05-31T07:02:39.309Z,98411
2018-05-31T07:05:07.704Z,98419
2018-05-31T07:07:35.248Z,98416
2018-05-31T07:10:03.954Z,98416
2018-05-31T07:12:31.539Z,98420
2018-05-31T07:14:59.157Z,98419
2018-05-31T07:17:26.820Z,98415
2018-05-31T07:19:55.811Z,98420
2018-05-31T07:22:23.388Z,98424
2018-05-31T07:24:51.724Z,98417
2018-05-31T07:27:19.424Z,98424
2018-05-31T07:29:47.776Z,98423
2018-05-31T07:32:15.520Z,98423
2018-05-31T07:34:43.248Z,98424
2018-05-31T07:37:11.701Z,98432
2018-05-31T07:39:42.289Z,98421
2018-05-31T07:42:10.100Z,98424
2018-05-31T07:44:37.972Z,98427
2018-05-31T07:47:05.758Z,98412
2018-05-31T07:49:34.099Z,98426
2018-05-31T07:52:01.680Z,98428
2018-05-31T07:54:30.020Z,98434
2018-05-31T07:56:57.609Z,98433
2018-05-31T07:59:26.320Z,98435
2018-05-31T08:01:55.693Z,98432
2018-05-31T08:04:23.369Z,98435
2018-05-31T08:06:51.256Z,98442
2018-05-31T08:09:19.628Z,98446
2018-05-31T08:11:47.383Z,98444
2018-05-31T08:14:15.758Z,98437
2018-05-31T08:16:44.096Z,98439
2018-05-31T08:19:12.431Z,98442
2018-05-31T08:21:40.790Z,98444
2018-05-31T08:24:10.469Z,98441
2018-05-31T08:26:38.035Z,98446
2018-05-31T08:29:05.633Z,98433
2018-05-31T08:31:33.362Z,98428
2018-05-31T08:34:01.672Z,98435
2018-05-31T08:36:30.052Z,98437
2018-05-31T08:38:57.645Z,98441
2018-05-31T08:41:26.526Z,98432
2018-05-31T08:43:54.893Z,98433
2018-05-31T08:46:22.800Z,98441
2018-05-31T08:48:51.245Z,98444
2018-05-31T08:51:18.944Z,98439
2018-05-31T08:53:47.324Z,98445
2018-05-31T08:56:14.961Z,98444
2018-05-31T08:58:43.320Z,98439
2018-05-31T09:01:10.996Z,98441
2018-05-31T09:03:38.652Z,98441
2018-05-31T09:06:06.352Z,98443
2018-05-31T09:08:33.933Z,98440
2018-05-31T09:11:01.516Z,98442
2018-05-31T09:13:31.767Z,98437
2018-05-31T09:15:59.345Z,98431
2018-05-31T09:18:27.769Z,98435
2018-05-31T09:20:56.804Z,98431
2018-05-31T09:23:25.075Z,98434
2018-05-31T09:25:52.667Z,98420
2018-05-31T09:28:21.568Z,98419
2018-05-31T09:30:49.132Z,98426
2018-05-31T09:33:16.699Z,98428
2018-05-31T09:35:44.271Z,98433
2018-05-31T09:38:12.107Z,98423
2018-05-31T09:40:40.572Z,98420
2018-05-31T09:43:08.971Z,98427
2018-05-31T09:45:36.731Z,98412
2018-05-31T09:48:04.425Z,98422
2018-05-31T09:50:32.022Z,98420
2018-05-31T09:52:59.733Z,98417
2018-05-31T09:55:27.300Z,98421
2018-05-31T10:00:48.192Z,98412
2018-05-31T10:03:15.851Z,98411
2018-05-31T10:05:43.499Z,98415
2018-05-31T10:08:11.080Z,98413
2018-05-31T10:10:39.425Z,98410
2018-05-31T10:13:07.020Z,98405
2018-05-31T10:15:34.710Z,98416
2018-05-31T10:18:02.368Z,98411
2018-05-31T10:20:29.949Z,98402
2018-05-31T10:22:57.516Z,98405
2018-05-31T10:25:25.741Z,98404
2018-05-31T10:27:53.317Z,98399
2018-05-31T10:30:21.661Z,98402
2018-05-31T10:32:49.241Z,98402
2018-05-31T10:35:16.912Z,98397
2018-05-31T10:37:45.242Z,98395
2018-05-31T10:40:12.846Z,98396
2018-05-31T10:42:44.531Z,98374
2018-05-31T10:45:13.781Z,98390
2018-05-31T10:47:41.902Z,98387
2018-05-31T10:50:11.935Z,98390
2018-05-31T10:52:39.570Z,98390
2018-05-31T10:55:07.912Z,98386
2018-05-31T10:57:35.604Z,98374
2018-05-31T11:00:03.984Z,98384
2018-05-31T11:02:31.556Z,98383
2018-05-31T11:04:59.907Z,98378
2018-05-31T11:07:27.713Z,98381
2018-05-31T11:09:56.592Z,98371
2018-05-31T11:12:27.852Z,98374
2018-05-31T11:14:56.134Z,98377
2018-05-31T11:17:24.823Z,98370
2018-05-31T11:19:52.499Z,98371
2018-05-31T11:22:20.757Z,98360
2018-05-31T11:24:49.116Z,98375
2018-05-31T11:27:17.488Z,98353
2018-05-31T11:29:45.055Z,98355
2018-05-31T11:32:13.644Z,98357
2018-05-31T11:34:42.064Z,98346
2018-05-31T11:37:09.622Z,98352
2018-05-31T11:39:37.350Z,98347
2018-05-31T11:42:05.684Z,98346
2018-05-31T11:44:33.327Z,98343
2018-05-31T11:47:00.897Z,98348
2018-05-31T11:49:28.623Z,98334
2018-05-31T11:51:58.006Z,98332
2018-05-31T11:54:26.144Z,98329
2018-05-31T11:56:54.492Z,98334
2018-05-31T11:59:22.960Z,98327
2018-05-31T12:01:50.617Z,98323
2018-05-31T12:04:20.228Z,98312
2018-05-31T12:06:48.580Z,98311
2018-05-31T12:09:16.164Z,98306
2018-05-31T12:11:43.735Z,98309
2018-05-31T12:14:12.175Z,98308
2018-05-31T12:16:39.864Z,98312
2018-05-31T12:19:08.966Z,98313
2018-05-31T12:21:36.592Z,98316
2018-05-31T12:24:04.187Z,98316
2018-05-31T12:26:31.784Z,98308
2018-05-31T12:28:59.804Z,98319
2018-05-31T12:31:27.375Z,98304
2018-05-31T12:33:56.491Z,98306
2018-05-31T12:36:25.480Z,98308
2018-05-31T12:38:53.220Z,98303
2018-05-31T12:41:20.813Z,98295
2018-05-31T12:43:49.290Z,98298
2018-05-31T12:46:17.666Z,98292
2018-05-31T12:48:45.348Z,98295
2018-05-31T12:51:13.707Z,98299
2018-05-31T12:53:41.450Z,98289
2018-05-31T12:56:09.043Z,98285
2018-05-31T12:58:37.376Z,98287
2018-05-31T13:01:04.979Z,98284
2018-05-31T13:03:32.686Z,98293
2018-05-31T13:06:00.335Z,98293
2018-05-31T13:08:28.880Z,98293
2018-05-31T13:10:56.744Z,98292
2018-05-31T13:13:24.412Z,98285
2018-05-31T13:15:52.184Z,98285
2018-05-31T13:20:34.530Z,98290
2018-05-31T13:23:02.105Z,98285
2018-05-31T13:25:29.784Z,98289
2018-05-31T13:27:57.649Z,98283
2018-05-31T13:30:25.785Z,98273
2018-05-31T13:32:57.788Z,98282
2018-05-31T13:35:26.625Z,98284
2018-05-31T13:37:55.257Z,98283
2018-05-31T13:40:22.879Z,98283
2018-05-31T13:42:51.222Z,98273
2018-05-31T13:45:18.815Z,98267
2018-05-31T13:47:47.175Z,98265
2018-05-31T13:50:15.604Z,98261
2018-05-31T13:52:43.236Z,98265
2018-05-31T13:55:11.636Z,98262
2018-05-31T13:57:39.997Z,98268
2018-05-31T14:00:08.345Z,98267
2018-05-31T14:02:35.912Z,98258
2018-05-31T14:05:04.524Z,98255
2018-05-31T14:07:32.104Z,98258
2018-05-31T14:10:00.436Z,98255
2018-05-31T14:12:28.029Z,98255
2018-05-31T14:14:56.404Z,98258
2018-05-31T14:17:29.321Z,98258
2018-05-31T14:19:56.889Z,98250
2018-05-31T14:22:25.133Z,98251
2018-05-31T14:24:53.512Z,98259
2018-05-31T14:27:21.843Z,98251
2018-05-31T14:29:49.447Z,98250
2018-05-31T14:32:17.792Z,98254
2018-05-31T14:34:45.399Z,98237
2018-05-31T14:37:13.784Z,98238
2018-05-31T14:39:42.151Z,98222
2018-05-31T14:42:09.720Z,98223
2018-05-31T14:44:38.091Z,98228
2018-05-31T14:47:06.472Z,98214
2018-05-31T14:49:34.857Z,98213
2018-05-31T14:52:04.988Z,98217
2018-05-31T14:54:33.352Z,98208
2018-05-31T14:57:01.696Z,98208
2018-05-31T14:59:29.269Z,98208
2018-05-31T15:01:56.866Z,98215
2018-05-31T15:04:25.815Z,98216
2018-05-31T15:06:54.201Z,98214
2018-05-31T15:09:21.864Z,98219
2018-05-31T15:11:49.451Z,98218
2018-05-31T15:14:17.024Z,98220
2018-05-31T15:16:45.525Z,98218
2018-05-31T15:19:13.912Z,98227
2018-05-31T15:21:41.661Z,98225
2018-05-31T15:24:10.206Z,98221
2018-05-31T15:26:38.604Z,98227
2018-05-31T15:29:06.188Z,98225
2018-05-31T15:31:33.839Z,98228
2018-05-31T15:34:02.207Z,98221
2018-05-31T15:36:29.984Z,98227
2018-05-31T15:38:58.398Z,98223
2018-05-31T15:41:26.214Z,98219
2018-05-31T15:43:54.323Z,98207
2018-05-31T15:46:21.995Z,98212
2018-05-31T15:48:49.656Z,98208
2018-05-31T15:51:17.483Z,98208
2018-05-31T15:53:46.598Z,98210
2018-05-31T15:56:15.091Z,98211
2018-05-31T15:58:42.736Z,98208
2018-05-31T16:01:11.073Z,98210
2018-05-31T16:03:38.671Z,98217
2018-05-31T16:06:06.485Z,98212
2018-05-31T16:08:35.118Z,98206
2018-05-31T16:11:02.810Z,98216
2018-05-31T16:13:31.151Z,98200
2018-05-31T16:15:58.824Z,98208
2018-05-31T16:18:26.500Z,98203
2018-05-31T16:20:57.001Z,98202
2018-05-31T16:23:25.735Z,98196
2018-05-31T16:25:53.485Z,98201
2018-05-31T16:28:21.305Z,98196
2018-05-31T16:30:49.038Z,98204
2018-05-31T16:33:16.629Z,98202
2018-05-31T16:35:44.237Z,98210
2018-05-31T16:38:12.603Z,98214
2018-05-31T16:40:40.280Z,98208
2018-05-31T16:43:08.639Z,98213
2018-05-31T16:45:36.241Z,98200
2018-05-31T16:48:03.810Z,98199
2018-05-31T16:50:31.400Z,98200
2018-05-31T16:52:58.967Z,98203
2018-05-31T16:55:26.531Z,98199
2018-05-31T16:57:56.634Z,98216
2018-05-31T17:00:24.853Z,98230
2018-05-31T17:02:52.425Z,98239
2018-05-31T17:05:20.799Z,98242
2018-05-31T17:07:48.590Z,98254
2018-05-31T17:10:16.333Z,98256
2018-05-31T17:12:44.720Z,98250
2018-05-31T17:15:13.066Z,98265
2018-05-31T17:17:40.751Z,98280
2018-05-31T17:20:10.837Z,98292
2018-05-31T17:22:41.690Z,98305
2018-05-31T17:25:12.351Z,98303
2018-05-31T17:27:40.723Z,98306
2018-05-31T17:30:08.388Z,98293
2018-05-31T17:32:36.055Z,98286
2018-05-31T17:35:04.431Z,98300
2018-05-31T17:37:32.775Z,98314
2018-05-31T17:40:00.347Z,98327
2018-05-31T17:42:28.041Z,98322
2018-05-31T17:44:56.381Z,98327
2018-05-31T17:47:24.904Z,98316
2018-05-31T17:49:53.240Z,98311
2018-05-31T17:52:20.937Z,98304
2018-05-31T17:54:48.734Z,98301
2018-05-31T17:57:16.479Z,98300
2018-05-31T17:59:45.881Z,98297
2018-05-31T18:02:14.256Z,98296
2018-05-31T18:04:42.641Z,98303
2018-05-31T18:07:11.023Z,98316
2018-05-31T18:09:39.367Z,98322
2018-05-31T18:12:07.045Z,98339
2018-05-31T18:14:34.616Z,98353
2018-05-31T18:17:02.278Z,98360
2018-05-31T18:19:30.860Z,98356
2018-05-31T18:22:00.267Z,98340
2018-05-31T18:24:27.852Z,98329
2018-05-31T18:26:56.305Z,98327
2018-05-31T18:29:24.408Z,98320
2018-05-31T18:31:52.028Z,98324
2018-05-31T18:34:19.908Z,98335
2018-05-31T18:36:51.493Z,98333
2018-05-31T18:39:21.171Z,98337
2018-05-31T18:41:49.042Z,98336
2018-05-31T18:44:17.423Z,98340
2018-05-31T18:46:45.080Z,98330
2018-05-31T18:49:12.771Z,98332
2018-05-31T18:51:41.159Z,98325
2018-05-31T18:54:08.733Z,98330
2018-05-31T18:56:36.325Z,98327
2018-05-31T18:59:03.900Z,98329
2018-05-31T19:01:31.630Z,98334
2018-05-31T19:03:59.205Z,98336
2018-05-31T19:06:29.093Z,98346
2018-05-31T19:08:57.076Z,98347
2018-05-31T19:11:25.688Z,98348
2018-05-31T19:13:57.957Z,98363
2018-05-31T19:16:26.892Z,98372
2018-05-31T19:19:01.540Z,98381
2018-05-31T19:21:30.288Z,98375
2018-05-31T19:27:01.061Z,98363
2018-05-31T19:29:32.435Z,98363
2018-05-31T19:32:00.026Z,98367
2018-05-31T19:34:28.180Z,98378
2018-05-31T19:37:01.725Z,98369
2018-05-31T19:39:29.501Z,98378
2018-05-31T19:41:58.586Z,98374
2018-05-31T19:44:41.822Z,98365
2018-05-31T19:47:09.396Z,98371
2018-05-31T19:49:37.780Z,98371
2018-05-31T19:52:12.521Z,98372
2018-05-31T19:54:40.888Z,98380
2018-05-31T19:57:09.238Z,98388
2018-05-31T19:59:43.521Z,98388
2018-05-31T20:02:17.001Z,98381
2018-05-31T20:04:45.432Z,98386
2018-05-31T20:07:13.117Z,98389
2018-05-31T20:09:41.508Z,98398
2018-05-31T20:12:10.190Z,98397
2018-05-31T20:14:37.807Z,98395
2018-05-31T20:17:05.409Z,98402
2018-05-31T20:19:33.720Z,98391
2018-05-31T20:22:01.365Z,98396
2018-05-31T20:24:29.830Z,98393
2018-05-31T20:26:57.449Z,98399
2018-05-31T20:29:26.733Z,98396
2018-05-31T20:31:54.840Z,98398
2018-05-31T20:34:23.577Z,98410
2018-05-31T20:36:52.544Z,98414
2018-05-31T20:39:21.932Z,98420
2018-05-31T20:41:49.510Z,98422
2018-05-31T20:44:19.658Z,98428
2018-05-31T20:46:48.033Z,98430
2018-05-31T20:49:15.657Z,98440
2018-05-31T20:51:44.086Z,98444
2018-05-31T20:54:11.750Z,98448
2018-05-31T20:56:40.092Z,98449
2018-05-31T20:59:07.796Z,98452
2018-05-31T21:01:35.376Z,98452
2018-05-31T21:04:03.505Z,98462
2018-05-31T21:06:31.807Z,98465
2018-05-31T21:08:59.477Z,98458
2018-05-31T21:11:27.044Z,98449
2018-05-31T21:13:55.461Z,98464
2018-05-31T21:16:23.035Z,98450
2018-05-31T21:18:50.620Z,98457
2018-05-31T21:21:18.991Z,98455
2018-05-31T21:23:46.660Z,98455
2018-05-31T21:26:15.071Z,98454
2018-05-31T21:28:42.704Z,98451
2018-05-31T21:31:11.092Z,98443
2018-05-31T21:33:39.459Z,98447
2018-05-31T21:36:07.036Z,98437
2018-05-31T21:38:35.369Z,98438
2018-05-31T21:41:03.031Z,98424
2018-05-31T21:43:30.624Z,98426
2018-05-31T21:45:58.190Z,98411
2018-05-31T21:48:26.568Z,98418
2018-05-31T21:50:54.908Z,98421
2018-05-31T21:53:22.512Z,98430
2018-05-31T21:55:50.844Z,98424
2018-05-31T21:58:18.443Z,98420
2018-05-31T22:00:51.810Z,98429
2018-05-31T22:03:19.400Z,98430
2018-05-31T22:05:46.973Z,98423
2018-05-31T22:11:06.252Z,98428
2018-05-31T22:13:33.930Z,98424
2018-05-31T22:16:01.589Z,98420
2018-05-31T22:18:29.930Z,98426
2018-05-31T22:20:57.520Z,98417
2018-05-31T22:23:26.000Z,98419
2018-05-31T22:25:55.849Z,98403
2018-05-31T22:28:23.479Z,98406
2018-05-31T22:30:52.449Z,98400
2018-05-31T22:33:20.048Z,98401
2018-05-31T22:35:48.417Z,98395
2018-05-31T22:38:16.080Z,98383
2018-05-31T22:40:43.849Z,98377
2018-05-31T22:43:12.192Z,98374
2018-05-31T22:45:39.763Z,98365
2018-05-31T22:48:07.332Z,98372
2018-05-31T22:50:35.012Z,98367
2018-05-31T22:53:03.349Z,98364
2018-05-31T22:55:30.919Z,98349
2018-05-31T22:57:58.512Z,98352
2018-05-31T23:00:26.180Z,98340
2018-05-31T23:02:54.010Z,98335
2018-05-31T23:05:21.604Z,98332
2018-05-31T23:07:49.176Z,98335
2018-05-31T23:10:17.554Z,98327
2018-05-31T23:12:45.919Z,98322
2018-05-31T23:15:14.145Z,98324
2018-05-31T23:17:41.764Z,98313
2018-05-31T23:20:10.148Z,98310
2018-05-31T23:22:38.485Z,98303
2018-05-31T23:25:06.080Z,98307
2018-05-31T23:27:33.648Z,98311
2018-05-31T23:30:01.981Z,98302
2018-05-31T23:32:29.553Z,98302
2018-05-31T23:34:57.144Z,98288
2018-05-31T23:37:25.184Z,98286
2018-05-31T23:39:52.756Z,98278
2018-05-31T23:42:20.319Z,98278
2018-05-31T23:44:47.884Z,98293
2018-05-31T23:47:16.280Z,98291
2018-05-31T23:49:43.941Z,98312
2018-05-31T23:52:11.617Z,98322
2018-05-31T23:54:39.977Z,98335
2018-05-31T23:57:07.656Z,98352
2018-05-31T23:59:35.992Z,98369
